createdAt,value
2022-08-26T00:02:29.665Z,86.47
2022-08-26T00:05:31.698Z,86.15
2022-08-26T00:08:33.925Z,86.04
2022-08-26T00:11:35.811Z,85.98
2022-08-26T00:14:37.669Z,85.66
2022-08-26T00:17:40.311Z,85.76
2022-08-26T00:20:42.497Z,86.14
2022-08-26T00:23:45.717Z,86.30
2022-08-26T00:26:48.128Z,85.86
2022-08-26T00:29:50.009Z,85.70
2022-08-26T00:32:52.966Z,86.44
2022-08-26T00:35:55.379Z,87.05
2022-08-26T00:38:58.537Z,87.13
2022-08-26T00:42:00.610Z,87.19
2022-08-26T00:45:02.413Z,87.67
2022-08-26T00:48:12.970Z,88.00
2022-08-26T00:51:18.830Z,88.28
2022-08-26T00:54:24.089Z,88.51
2022-08-26T00:57:29.806Z,88.66
2022-08-26T01:00:32.202Z,88.59
2022-08-26T01:03:34.872Z,88.17
2022-08-26T01:06:37.025Z,88.15
2022-08-26T01:09:39.740Z,88.70
2022-08-26T01:12:55.612Z,88.96
2022-08-26T01:16:01.405Z,88.92
2022-08-26T01:19:16.298Z,88.85
2022-08-26T01:22:28.800Z,88.65
2022-08-26T01:25:33.557Z,88.29
2022-08-26T01:28:37.149Z,88.66
2022-08-26T01:31:46.575Z,88.47
2022-08-26T01:34:48.565Z,88.13
2022-08-26T01:37:54.193Z,87.91
2022-08-26T01:40:56.312Z,88.09
2022-08-26T01:43:59.788Z,87.81
2022-08-26T01:47:02.271Z,87.72
2022-08-26T01:50:11.493Z,88.10
2022-08-26T01:53:15.444Z,88.38
2022-08-26T01:56:17.368Z,88.70
2022-08-26T01:59:20.860Z,88.94
2022-08-26T02:02:24.542Z,89.17
2022-08-26T02:05:26.393Z,89.42
2022-08-26T02:08:39.793Z,89.41
2022-08-26T02:11:41.583Z,89.10
2022-08-26T02:14:51.247Z,89.36
2022-08-26T02:17:53.269Z,89.43
2022-08-26T02:20:56.316Z,89.71
2022-08-26T02:24:08.642Z,89.96
2022-08-26T02:27:10.654Z,90.11
2022-08-26T02:30:22.052Z,90.21
2022-08-26T02:33:23.830Z,90.24
2022-08-26T02:36:28.526Z,90.23
2022-08-26T02:39:32.668Z,90.35
2022-08-26T02:42:34.644Z,90.31
2022-08-26T02:45:37.237Z,90.21
2022-08-26T02:48:39.225Z,90.39
2022-08-26T02:51:41.053Z,90.42
2022-08-26T02:54:45.472Z,90.42
2022-08-26T02:57:47.417Z,90.42
2022-08-26T03:00:49.302Z,90.46
2022-08-26T03:03:56.100Z,90.51
2022-08-26T03:06:58.499Z,90.40
2022-08-26T03:10:00.967Z,90.35
2022-08-26T03:13:05.093Z,90.19
2022-08-26T03:16:07.830Z,90.30
2022-08-26T03:19:10.168Z,90.07
2022-08-26T03:22:12.263Z,90.40
2022-08-26T03:25:17.019Z,90.55
2022-08-26T03:28:19.384Z,90.52
2022-08-26T03:31:24.476Z,90.69
2022-08-26T03:34:26.652Z,90.92
2022-08-26T03:37:29.635Z,90.97
2022-08-26T03:40:33.906Z,90.87
2022-08-26T03:43:35.841Z,90.74
2022-08-26T03:46:38.592Z,90.20
2022-08-26T03:49:40.825Z,90.31
2022-08-26T03:52:44.041Z,90.27
2022-08-26T03:55:46.090Z,90.67
2022-08-26T03:58:48.329Z,90.73
2022-08-26T04:01:52.760Z,90.85
2022-08-26T04:04:54.623Z,90.33
2022-08-26T04:07:56.402Z,90.15
2022-08-26T04:10:58.212Z,90.21
2022-08-26T04:14:00.909Z,90.54
2022-08-26T04:17:05.068Z,90.71
2022-08-26T04:20:08.546Z,90.62
2022-08-26T04:23:11.533Z,90.44
2022-08-26T04:26:13.258Z,90.22
2022-08-26T04:29:26.221Z,90.63
2022-08-26T04:32:28.705Z,90.78
2022-08-26T04:35:35.236Z,90.97
2022-08-26T04:38:37.187Z,91.28
2022-08-26T04:41:39.764Z,91.41
2022-08-26T04:44:41.939Z,91.96
2022-08-26T04:47:43.889Z,92.31
2022-08-26T04:50:49.436Z,92.54
2022-08-26T04:53:51.527Z,92.91
2022-08-26T04:56:54.304Z,92.98
2022-08-26T04:59:56.152Z,93.22
2022-08-26T05:02:58.028Z,93.10
2022-08-26T05:06:04.904Z,93.13
2022-08-26T05:09:06.961Z,93.46
2022-08-26T05:12:09.768Z,93.67
2022-08-26T05:15:11.683Z,94.81
2022-08-26T05:18:15.299Z,95.91
2022-08-26T05:21:23.294Z,96.06
2022-08-26T05:24:24.994Z,95.84
2022-08-26T05:27:26.936Z,95.56
2022-08-26T05:30:31.560Z,95.41
2022-08-26T05:33:33.267Z,94.73
2022-08-26T05:36:36.300Z,93.89
2022-08-26T05:39:41.184Z,93.55
2022-08-26T05:42:43.083Z,93.00
2022-08-26T05:45:49.246Z,92.95
2022-08-26T05:48:51.765Z,93.21
2022-08-26T05:51:54.081Z,93.68
2022-08-26T05:54:56.448Z,93.52
2022-08-26T05:57:58.707Z,92.44
2022-08-26T06:01:10.572Z,92.02
2022-08-26T06:04:13.395Z,91.58
2022-08-26T06:07:16.958Z,91.17
2022-08-26T06:10:31.986Z,90.37
2022-08-26T06:13:35.590Z,89.76
2022-08-26T06:16:40.856Z,88.55
2022-08-26T06:19:42.892Z,86.60
2022-08-26T06:23:10.689Z,85.65
2022-08-26T06:26:13.646Z,86.48
2022-08-26T06:29:15.630Z,85.89
2022-08-26T06:32:27.338Z,84.45
2022-08-26T06:35:29.109Z,84.30
2022-08-26T06:38:31.049Z,86.12
2022-08-26T06:41:34.488Z,87.39
2022-08-26T06:44:36.539Z,87.12
2022-08-26T06:47:38.412Z,85.07
2022-08-26T06:50:40.961Z,85.43
2022-08-26T06:53:46.898Z,86.20
2022-08-26T06:56:48.579Z,85.93
2022-08-26T06:59:51.454Z,84.96
2022-08-26T07:02:53.851Z,83.58
2022-08-26T07:06:02.349Z,83.66
2022-08-26T07:09:06.851Z,82.95
2022-08-26T07:12:11.674Z,83.02
2022-08-26T07:15:13.461Z,83.35
2022-08-26T07:18:17.309Z,82.36
2022-08-26T07:21:20.346Z,82.32
2022-08-26T07:24:23.885Z,81.89
2022-08-26T07:27:30.330Z,81.05
2022-08-26T07:30:32.896Z,80.33
2022-08-26T07:33:36.033Z,79.98
2022-08-26T07:36:38.281Z,78.76
2022-08-26T07:39:41.751Z,78.72
2022-08-26T07:42:45.446Z,78.65
2022-08-26T07:45:47.300Z,78.18
2022-08-26T07:48:50.572Z,77.07
2022-08-26T07:51:54.201Z,76.82
2022-08-26T07:54:58.258Z,76.52
2022-08-26T07:58:00.748Z,75.89
2022-08-26T08:01:03.265Z,74.59
2022-08-26T08:04:07.335Z,72.36
2022-08-26T08:07:12.058Z,73.11
2022-08-26T08:10:21.106Z,73.79
2022-08-26T08:13:24.134Z,73.69
2022-08-26T08:16:26.295Z,72.38
2022-08-26T08:19:29.934Z,72.04
2022-08-26T08:22:38.856Z,72.01
2022-08-26T08:25:42.608Z,70.65
2022-08-26T08:28:44.828Z,70.78
2022-08-26T08:31:56.916Z,70.71
2022-08-26T08:35:00.285Z,70.82
2022-08-26T08:38:04.254Z,70.22
2022-08-26T08:41:37.393Z,69.33
2022-08-26T08:44:42.231Z,68.42
2022-08-26T08:47:54.106Z,66.40
2022-08-26T08:51:05.987Z,65.75
2022-08-26T08:54:08.358Z,65.30
2022-08-26T08:57:33.064Z,65.40
2022-08-26T09:00:44.407Z,65.85
2022-08-26T09:04:33.067Z,63.77
2022-08-26T09:07:47.157Z,65.08
2022-08-26T09:10:56.087Z,65.52
2022-08-26T09:14:00.419Z,64.27
2022-08-26T09:17:10.392Z,62.59
2022-08-26T09:20:50.009Z,62.27
2022-08-26T09:23:55.554Z,61.82
2022-08-26T09:26:59.304Z,62.13
2022-08-26T09:30:01.546Z,62.25
2022-08-26T09:33:10.889Z,61.44
2022-08-26T09:36:22.737Z,61.66
2022-08-26T09:39:37.877Z,60.43
2022-08-26T09:42:39.927Z,60.17
2022-08-26T09:45:50.217Z,61.48
2022-08-26T09:48:53.269Z,61.58
2022-08-26T09:52:07.306Z,60.54
2022-08-26T09:55:21.104Z,60.24
2022-08-26T09:58:35.181Z,60.25
2022-08-26T10:01:43.891Z,59.04
2022-08-26T10:04:51.978Z,57.73
2022-08-26T10:07:54.817Z,57.38
2022-08-26T10:11:00.123Z,56.34
2022-08-26T10:14:08.231Z,56.48
2022-08-26T10:17:27.994Z,57.05
2022-08-26T10:20:36.927Z,57.01
2022-08-26T10:23:43.251Z,57.01
2022-08-26T10:27:18.034Z,56.27
2022-08-26T10:30:22.788Z,54.99
2022-08-26T10:33:25.475Z,54.35
2022-08-26T10:37:13.442Z,53.71
2022-08-26T10:40:16.579Z,54.74
2022-08-26T10:43:23.740Z,53.19
2022-08-26T10:46:34.611Z,53.02
2022-08-26T10:49:39.930Z,53.28
2022-08-26T10:53:01.835Z,52.67
2022-08-26T10:56:28.594Z,52.06
2022-08-26T10:59:58.248Z,52.13
2022-08-26T11:03:04.632Z,50.95
2022-08-26T11:06:27.061Z,49.29
2022-08-26T11:09:46.970Z,49.95
2022-08-26T11:13:00.540Z,50.60
2022-08-26T11:16:02.640Z,47.46
2022-08-26T11:19:09.495Z,48.96
2022-08-26T11:22:28.926Z,49.75
2022-08-26T11:25:31.159Z,48.78
2022-08-26T11:28:49.540Z,48.71
2022-08-26T11:31:54.722Z,48.17
2022-08-26T11:34:59.264Z,47.72
2022-08-26T11:38:18.089Z,46.75
2022-08-26T11:41:22.515Z,45.96
2022-08-26T11:44:27.267Z,46.30
2022-08-26T11:47:31.010Z,46.28
2022-08-26T11:50:33.277Z,43.92
2022-08-26T11:53:38.726Z,43.35
2022-08-26T11:56:42.199Z,41.62
2022-08-26T11:59:44.054Z,40.92
2022-08-26T12:02:45.742Z,41.25
2022-08-26T12:05:49.372Z,41.76
2022-08-26T12:08:52.505Z,41.33
2022-08-26T12:12:14.853Z,40.73
2022-08-26T12:15:20.100Z,39.92
2022-08-26T12:18:34.181Z,40.45
2022-08-26T12:21:37.445Z,40.72
2022-08-26T12:24:46.067Z,39.80
2022-08-26T12:27:50.608Z,40.55
2022-08-26T12:31:00.969Z,40.03
2022-08-26T12:34:06.152Z,39.73
2022-08-26T12:37:19.466Z,40.06
2022-08-26T12:40:41.122Z,40.12
2022-08-26T12:43:45.115Z,40.92
2022-08-26T12:46:49.831Z,40.18
2022-08-26T12:50:06.268Z,39.85
2022-08-26T12:53:11.153Z,40.70
2022-08-26T12:56:35.293Z,39.99
2022-08-26T12:59:37.143Z,40.29
2022-08-26T13:02:40.343Z,40.27
2022-08-26T13:05:42.253Z,39.58
2022-08-26T13:08:49.354Z,39.16
2022-08-26T13:11:53.302Z,38.43
2022-08-26T13:14:55.971Z,38.60
2022-08-26T13:17:58.241Z,38.46
2022-08-26T13:21:00.538Z,38.82
2022-08-26T13:24:08.734Z,38.67
2022-08-26T13:27:13.333Z,38.25
2022-08-26T13:30:15.608Z,37.44
2022-08-26T13:33:18.766Z,38.08
2022-08-26T13:36:22.222Z,38.19
2022-08-26T13:39:25.510Z,37.46
2022-08-26T13:42:27.466Z,37.43
2022-08-26T13:45:29.294Z,37.09
2022-08-26T13:48:32.007Z,37.58
2022-08-26T13:51:34.390Z,37.78
2022-08-26T13:54:36.438Z,37.81
2022-08-26T13:57:38.813Z,37.68
2022-08-26T14:00:41.456Z,37.85
2022-08-26T14:03:43.989Z,37.64
2022-08-26T14:06:45.811Z,37.44
2022-08-26T14:09:49.987Z,38.28
2022-08-26T14:12:52.008Z,38.13
2022-08-26T14:15:54.318Z,38.76
2022-08-26T14:18:56.322Z,38.82
2022-08-26T14:22:01.012Z,38.72
2022-08-26T14:25:03.066Z,38.58
2022-08-26T14:28:04.903Z,38.23
2022-08-26T14:31:07.126Z,38.78
2022-08-26T14:34:13.241Z,38.41
2022-08-26T14:37:15.541Z,38.49
2022-08-26T14:40:19.463Z,38.25
2022-08-26T14:43:21.965Z,38.53
2022-08-26T14:46:28.352Z,38.34
2022-08-26T14:49:31.849Z,38.10
2022-08-26T14:52:54.165Z,38.20
2022-08-26T14:55:56.042Z,37.73
2022-08-26T14:58:57.795Z,37.55
2022-08-26T15:02:00.982Z,37.79
2022-08-26T15:05:04.370Z,38.21
2022-08-26T15:08:10.852Z,37.43
2022-08-26T15:11:13.105Z,36.65
2022-08-26T15:14:19.675Z,36.61
2022-08-26T15:17:22.114Z,36.49
2022-08-26T15:20:24.370Z,36.29
2022-08-26T15:23:27.168Z,36.39
2022-08-26T15:26:31.145Z,35.87
2022-08-26T15:29:36.296Z,35.84
2022-08-26T15:32:38.606Z,35.64
2022-08-26T15:35:40.447Z,35.70
2022-08-26T15:38:45.207Z,36.12
2022-08-26T15:41:47.159Z,36.34
2022-08-26T15:44:50.031Z,36.59
2022-08-26T15:48:01.290Z,36.60
2022-08-26T15:51:21.265Z,36.89
2022-08-26T15:54:24.567Z,37.36
2022-08-26T15:57:26.491Z,37.60
2022-08-26T16:00:28.853Z,38.06
2022-08-26T16:03:30.711Z,38.25
2022-08-26T16:06:34.781Z,38.54
2022-08-26T16:09:36.806Z,38.81
2022-08-26T16:12:38.642Z,38.65
2022-08-26T16:15:41.216Z,39.09
2022-08-26T16:18:43.558Z,39.17
2022-08-26T16:21:45.445Z,39.48
2022-08-26T16:24:47.290Z,39.41
2022-08-26T16:27:49.240Z,39.54
2022-08-26T16:30:52.772Z,39.53
2022-08-26T16:33:54.483Z,39.67
2022-08-26T16:36:56.410Z,39.78
2022-08-26T16:39:58.524Z,40.04
2022-08-26T16:43:00.398Z,40.31
2022-08-26T16:46:02.298Z,40.22
2022-08-26T16:49:04.816Z,40.36
2022-08-26T16:52:07.954Z,40.47
2022-08-26T16:55:13.364Z,40.48
2022-08-26T16:58:15.531Z,40.71
2022-08-26T17:01:17.981Z,40.87
2022-08-26T17:04:19.971Z,41.08
2022-08-26T17:07:21.983Z,41.17
2022-08-26T17:10:25.060Z,41.51
2022-08-26T17:13:35.207Z,41.54
2022-08-26T17:16:38.266Z,41.59
2022-08-26T17:19:46.832Z,41.74
2022-08-26T17:22:50.882Z,41.78
2022-08-26T17:25:52.975Z,42.10
2022-08-26T17:28:54.858Z,42.42
2022-08-26T17:31:56.722Z,42.44
2022-08-26T17:34:59.094Z,42.94
2022-08-26T17:38:01.036Z,42.76
2022-08-26T17:41:03.092Z,43.12
2022-08-26T17:44:05.369Z,43.34
2022-08-26T17:47:07.275Z,43.56
2022-08-26T17:50:12.853Z,43.73
2022-08-26T17:53:19.139Z,44.00
2022-08-26T17:56:27.575Z,44.47
2022-08-26T17:59:30.467Z,44.75
2022-08-26T18:02:32.565Z,45.12
2022-08-26T18:05:34.656Z,45.62
2022-08-26T18:08:38.052Z,46.18
2022-08-26T18:11:40.300Z,46.44
2022-08-26T18:14:43.297Z,46.98
2022-08-26T18:17:45.325Z,47.54
2022-08-26T18:20:47.355Z,47.95
2022-08-26T18:23:54.962Z,48.35
2022-08-26T18:26:56.839Z,48.68
2022-08-26T18:29:58.666Z,49.24
2022-08-26T18:33:00.979Z,49.50
2022-08-26T18:36:02.981Z,50.40
2022-08-26T18:39:06.108Z,50.70
2022-08-26T18:42:08.555Z,50.73
2022-08-26T18:45:10.829Z,51.37
2022-08-26T18:48:18.034Z,51.53
2022-08-26T18:51:31.492Z,52.34
2022-08-26T18:54:33.328Z,52.45
2022-08-26T18:57:35.141Z,53.09
2022-08-26T19:00:36.970Z,53.51
2022-08-26T19:03:38.752Z,53.71
2022-08-26T19:06:41.413Z,54.18
2022-08-26T19:09:43.760Z,54.54
2022-08-26T19:12:46.785Z,54.95
2022-08-26T19:15:53.750Z,55.20
2022-08-26T19:18:58.503Z,55.42
2022-08-26T19:22:00.549Z,55.61
2022-08-26T19:25:02.599Z,55.96
2022-08-26T19:28:04.328Z,56.44
2022-08-26T19:31:10.674Z,56.60
2022-08-26T19:34:12.700Z,56.84
2022-08-26T19:37:15.050Z,57.33
2022-08-26T19:40:16.871Z,57.53
2022-08-26T19:43:20.957Z,57.93
2022-08-26T19:46:26.685Z,58.24
2022-08-26T19:49:28.591Z,58.44
2022-08-26T19:52:30.349Z,58.76
2022-08-26T19:55:32.299Z,58.40
2022-08-26T19:58:35.442Z,58.54
2022-08-26T20:01:37.320Z,58.93
2022-08-26T20:04:39.372Z,59.47
2022-08-26T20:07:41.320Z,59.64
2022-08-26T20:10:44.541Z,59.80
2022-08-26T20:13:47.281Z,60.08
2022-08-26T20:16:49.501Z,60.93
2022-08-26T20:20:13.301Z,61.75
2022-08-26T20:23:30.440Z,62.25
2022-08-26T20:26:34.966Z,62.80
2022-08-26T20:29:37.651Z,63.04
2022-08-26T20:32:40.395Z,63.32
2022-08-26T20:35:42.196Z,63.42
2022-08-26T20:38:44.586Z,63.70
2022-08-26T20:41:47.214Z,64.05
2022-08-26T20:44:54.768Z,64.29
2022-08-26T20:47:57.257Z,64.44
2022-08-26T20:51:00.245Z,64.76
2022-08-26T20:54:02.549Z,64.87
2022-08-26T20:57:04.663Z,65.12
2022-08-26T21:00:07.563Z,65.23
2022-08-26T21:03:09.458Z,65.29
2022-08-26T21:06:12.604Z,65.52
2022-08-26T21:09:15.371Z,65.71
2022-08-26T21:12:18.367Z,65.84
2022-08-26T21:15:20.507Z,66.13
2022-08-26T21:18:22.304Z,66.40
2022-08-26T21:21:27.567Z,66.49
2022-08-26T21:24:29.549Z,66.97
2022-08-26T21:27:31.711Z,67.32
2022-08-26T21:30:37.934Z,67.70
2022-08-26T21:33:40.497Z,68.09
2022-08-26T21:36:42.742Z,68.13
2022-08-26T21:39:44.659Z,68.20
2022-08-26T21:42:46.493Z,68.26
2022-08-26T21:45:50.226Z,68.62
2022-08-26T21:48:58.286Z,68.53
2022-08-26T21:52:01.872Z,68.66
2022-08-26T21:55:05.096Z,69.10
2022-08-26T21:58:11.766Z,69.61
2022-08-26T22:01:20.832Z,69.98
2022-08-26T22:04:22.919Z,70.19
2022-08-26T22:07:24.663Z,70.40
2022-08-26T22:10:26.526Z,70.75
2022-08-26T22:13:31.102Z,70.71
2022-08-26T22:16:32.980Z,70.40
2022-08-26T22:19:36.104Z,70.57
2022-08-26T22:22:51.714Z,71.37
2022-08-26T22:25:54.500Z,72.18
2022-08-26T22:28:58.703Z,72.75
2022-08-26T22:32:01.878Z,73.02
2022-08-26T22:35:11.381Z,73.20
2022-08-26T22:38:26.214Z,73.37
2022-08-26T22:41:28.090Z,73.53
2022-08-26T22:44:31.654Z,73.60
2022-08-26T22:47:34.923Z,73.72
2022-08-26T22:50:39.028Z,73.70
2022-08-26T22:53:41.479Z,73.78
2022-08-26T22:56:45.540Z,73.81
2022-08-26T22:59:47.400Z,73.95
2022-08-26T23:02:49.222Z,74.19
2022-08-26T23:06:11.103Z,74.09
2022-08-26T23:09:28.107Z,73.97
2022-08-26T23:12:30.110Z,73.94
2022-08-26T23:15:32.006Z,74.10
2022-08-26T23:18:33.921Z,74.57
2022-08-26T23:21:35.840Z,74.50
2022-08-26T23:24:37.754Z,74.56
2022-08-26T23:27:41.886Z,74.73
2022-08-26T23:30:43.911Z,74.89
2022-08-26T23:34:04.594Z,75.14
2022-08-26T23:37:07.863Z,75.56
2022-08-26T23:40:15.974Z,75.94
2022-08-26T23:43:18.411Z,76.19
2022-08-26T23:46:20.737Z,76.46
2022-08-26T23:49:23.039Z,76.59
2022-08-26T23:52:43.589Z,76.81
2022-08-26T23:55:48.495Z,76.76
2022-08-26T23:58:50.337Z,76.83
